Time;durP1;ratioP1;P1;durP2;ratioP2;P2;SDS_P1;SDS_P2;PMS_P1;PMS_P2;Temp;Humidity;BMP_temperature;BMP_pressure;BME280_temperature;BME280_humidity;BME280_pressure;Samples;Min_cycle;Max_cycle;Signal;HPM_P1;HPM_P2
2022/05/16 00:00:08;;;;;;;2.28;0.88;;;;;;;21.98;46.47;101479.03;5084400;28;20025;-45
2022/05/16 00:02:33;;;;;;;1.02;0.68;;;;;;;21.99;46.40;101474.47;5075712;28;20029;-44
2022/05/16 00:04:59;;;;;;;1.23;0.70;;;;;;;21.98;46.14;101478.19;5091203;28;20055;-46
2022/05/16 00:07:24;;;;;;;1.35;0.65;;;;;;;;;;5085223;28;20064;-46
2022/05/16 00:09:49;;;;;;;0.70;0.60;;;;;;;21.98;46.35;101472.78;5077478;28;20024;-45
2022/05/16 00:12:16;;;;;;;1.48;0.80;;;;;;;21.98;46.38;101478.19;5085126;28;20024;-47
2022/05/16 00:14:42;;;;;;;1.83;0.98;;;;;;;;;;5084508;28;20051;-44
2022/05/16 00:17:07;;;;;;;0.80;0.80;;;;;;;21.95;46.37;101474.81;5078780;28;20421;-45
2022/05/16 00:19:32;;;;;;;1.90;0.80;;;;;;;21.95;46.18;101472.09;5083471;28;20051;-44
2022/05/16 00:21:58;;;;;;;1.00;0.68;;;;;;;21.92;46.46;101464.34;5077259;28;20032;-45
2022/05/16 00:24:26;;;;;;;1.50;0.70;;;;;;;21.96;46.28;101462.09;5084724;28;20087;-45
2022/05/16 00:26:55;;;;;;;1.27;0.65;;;;;;;21.95;46.40;101468.53;5077028;28;20119;-45
2022/05/16 00:29:20;;;;;;;1.02;0.70;;;;;;;21.94;46.11;101458.75;5085194;28;20031;-46
2022/05/16 00:31:46;;;;;;;1.15;0.68;;;;;;;21.95;46.25;101460.44;5084101;28;20037;-45
2022/05/16 00:34:11;;;;;;;1.15;0.57;;;;;;;21.95;46.09;101465.84;5085212;28;20028;-45
2022/05/16 00:36:37;;;;;;;0.85;0.70;;;;;;;21.95;46.15;101460.44;5084694;28;20036;-47
2022/05/16 00:39:02;;;;;;;1.15;0.77;;;;;;;21.94;46.17;101464.16;5076817;28;20055;-45
2022/05/16 00:41:28;;;;;;;1.75;0.90;;;;;;;21.93;46.33;101471.44;5077014;28;20044;-47
2022/05/16 00:43:58;;;;;;;1.40;0.88;;;;;;;21.94;46.00;101465.00;5082488;28;20036;-48
2022/05/16 00:46:30;;;;;;;1.92;0.70;;;;;;;21.95;46.24;101468.53;5084641;28;20020;-46
2022/05/16 00:48:56;;;;;;;1.73;1.00;;;;;;;21.93;46.00;101466.03;5075128;28;20109;-45
2022/05/16 00:51:24;;;;;;;2.00;0.98;;;;;;;21.91;46.18;101461.78;5084286;28;20454;-46
2022/05/16 00:53:54;;;;;;;1.00;0.77;;;;;;;21.92;45.93;101458.94;5083352;28;20043;-47
2022/05/16 00:56:19;;;;;;;2.35;1.23;;;;;;;21.92;46.07;101458.94;5072254;28;20497;-46
2022/05/16 00:58:46;;;;;;;1.98;0.90;;;;;;;21.92;46.17;101448.09;5081178;28;20032;-45
2022/05/16 01:06:40;;;;;;;1.45;0.85;;;;;;;21.90;45.89;101444.72;5079051;28;20112;-47
2022/05/16 01:09:06;;;;;;;1.10;0.77;;;;;;;21.91;45.88;101449.09;5077527;28;20048;-47
2022/05/16 01:11:32;;;;;;;1.58;0.70;;;;;;;21.91;46.05;101440.13;5083959;28;20039;-49
2022/05/16 01:13:57;;;;;;;2.13;1.30;;;;;;;21.91;46.27;101440.97;5083931;28;20045;-48
2022/05/16 01:16:23;;;;;;;1.58;0.80;;;;;;;21.90;46.07;101447.41;5084147;28;20035;-47
2022/05/16 01:18:48;;;;;;;1.25;0.70;;;;;;;21.90;46.13;101454.69;5084208;28;20097;-44
2022/05/16 01:21:16;;;;;;;1.65;0.80;;;;;;;21.91;46.20;101443.69;5081815;28;20033;-47
2022/05/16 01:23:48;;;;;;;1.50;0.80;;;;;;;21.90;46.21;101452.81;5078489;28;20033;-48
2022/05/16 01:26:18;;;;;;;0.85;0.75;;;;;;;21.90;46.01;101444.72;5066432;28;20065;-48
2022/05/16 01:28:44;;;;;;;1.05;0.60;;;;;;;21.90;45.87;101443.88;5083866;28;20032;-47
2022/05/16 01:31:09;;;;;;;1.17;0.70;;;;;;;21.88;45.91;101435.09;5082701;28;20032;-48
2022/05/16 01:33:34;;;;;;;1.60;0.75;;;;;;;21.85;45.95;101421.91;5084150;28;20068;-46
2022/05/16 01:35:59;;;;;;;1.42;0.90;;;;;;;21.88;46.22;101435.94;5083151;28;20047;-48
2022/05/16 01:38:28;;;;;;;0.93;0.70;;;;;;;21.89;46.13;101425.94;5080672;28;20037;-47
2022/05/16 01:41:11;;;;;;;0.68;0.60;;;;;;;21.89;45.91;101425.94;5079081;28;20060;-44
2022/05/16 01:43:40;;;;;;;1.15;0.70;;;;;;;21.87;46.07;101420.69;5076173;28;20032;-48
2022/05/16 01:46:06;;;;;;;2.35;0.98;;;;;;;21.87;45.78;101419.84;5082639;28;20024;-46
2022/05/16 01:48:31;;;;;;;0.90;0.60;;;;;;;21.87;45.90;101433.38;5083660;28;20024;-45
2022/05/16 01:50:59;;;;;;;2.00;1.20;;;;;;;21.87;45.77;101419.84;5083819;28;20052;-45
2022/05/16 01:53:24;;;;;;;2.00;1.00;;;;;;;21.87;46.03;101422.56;5083096;28;20083;-46
2022/05/16 01:55:49;;;;;;;1.20;0.85;;;;;;;21.86;45.90;101416.31;5074997;28;21167;-46
2022/05/16 01:58:15;;;;;;;1.15;0.77;;;;;;;21.85;46.04;101422.75;5083283;28;20040;-49
2022/05/16 02:00:40;;;;;;;1.05;0.80;;;;;;;21.85;46.04;101414.63;5074728;28;20096;-46
2022/05/16 02:03:05;;;;;;;0.80;0.73;;;;;;;21.82;45.88;101406.00;5088820;28;20236;-45
2022/05/16 02:05:31;;;;;;;1.52;0.80;;;;;;;21.85;45.73;101420.03;5083631;28;20047;-45
2022/05/16 02:07:56;;;;;;;1.15;0.80;;;;;;;21.85;46.14;101411.91;5083372;28;20036;-46
2022/05/16 02:10:24;;;;;;;1.55;0.80;;;;;;;21.84;46.15;101410.22;5074789;28;20107;-46
2022/05/16 02:12:50;;;;;;;1.23;0.80;;;;;;;21.84;45.73;101407.53;5077776;28;20033;-45
2022/05/16 02:15:18;;;;;;;1.63;1.05;;;;;;;21.83;45.96;101397.69;5079322;28;20445;-49
2022/05/16 02:17:43;;;;;;;1.23;0.82;;;;;;;21.84;45.98;101395.84;5082865;28;20027;-45
2022/05/16 02:20:09;;;;;;;2.25;0.80;;;;;;;21.79;45.86;101390.97;5083370;28;20032;-47
2022/05/16 02:25:18;;;;;;;1.30;0.85;;;;;;;21.81;45.69;101388.91;5079931;28;20170;-48
2022/05/16 02:27:45;;;;;;;1.42;0.80;;;;;;;21.79;45.77;101388.28;5083110;28;20518;-46
2022/05/16 02:30:12;;;;;;;1.33;0.80;;;;;;;21.82;45.88;101389.75;5082347;28;20036;-45
2022/05/16 02:32:37;;;;;;;1.27;0.80;;;;;;;21.82;46.04;101379.78;5074041;28;20025;-47
2022/05/16 02:35:03;;;;;;;0.85;0.70;;;;;;;21.81;46.11;101364.56;5083274;28;20035;-44
2022/05/16 02:37:28;;;;;;;1.13;0.80;;;;;;;21.81;46.14;101369.13;5074548;28;20027;-46
2022/05/16 02:39:53;;;;;;;1.33;0.80;;;;;;;21.80;45.83;101367.44;5078218;28;20024;-50
2022/05/16 02:42:19;;;;;;;1.42;0.77;;;;;;;21.80;45.76;101365.59;5079219;28;20028;-47
2022/05/16 02:44:44;;;;;;;1.52;0.70;;;;;;;21.80;46.07;101368.28;5077893;28;20481;-46
2022/05/16 02:47:17;;;;;;;0.90;0.70;;;;;;;21.80;45.62;101354.75;5072300;28;20100;-48
2022/05/16 02:49:43;;;;;;;1.23;0.80;;;;;;;21.77;45.97;101352.41;5078376;28;20016;-45
2022/05/16 02:52:09;;;;;;;0.90;0.57;;;;;;;21.79;45.63;101363.91;5086861;28;20107;-46
2022/05/16 02:54:34;;;;;;;1.27;0.77;;;;;;;21.79;45.68;101354.91;5078714;28;20463;-49
2022/05/16 02:57:00;;;;;;;1.13;0.88;;;;;;;21.78;45.84;101345.97;5078372;28;20111;-45
2022/05/16 02:59:27;;;;;;;2.50;1.10;;;;;;;21.78;45.43;101348.66;5078385;28;20040;-48
2022/05/16 03:01:53;;;;;;;0.75;0.68;;;;;;;21.79;45.63;101346.78;5078248;28;20046;-46
2022/05/16 03:04:18;;;;;;;1.23;0.80;;;;;;;21.78;45.81;101348.66;5094403;28;20033;-48
2022/05/16 03:06:43;;;;;;;1.40;0.73;;;;;;;21.77;45.87;101348.84;5078369;28;20033;-46
2022/05/16 03:09:08;;;;;;;1.10;0.88;;;;;;;21.75;45.88;101342.75;5086787;28;20489;-45
2022/05/16 03:11:34;;;;;;;1.10;0.85;;;;;;;21.75;45.61;101349.03;5076584;28;20576;-49
2022/05/16 03:13:59;;;;;;;1.20;0.88;;;;;;;21.77;45.69;101335.31;5065623;28;20032;-48
2022/05/16 03:16:25;;;;;;;1.10;0.90;;;;;;;21.74;45.65;101328.38;5082301;28;20020;-46
2022/05/16 03:18:50;;;;;;;1.45;0.95;;;;;;;21.76;46.00;101326.38;5083238;28;20020;-45
2022/05/16 03:21:15;;;;;;;1.50;0.70;;;;;;;21.73;45.83;101318.59;5081083;28;20060;-50
2022/05/16 03:23:40;;;;;;;1.83;1.00;;;;;;;21.75;46.03;101324.69;5086129;28;20143;-48
2022/05/16 03:26:06;;;;;;;1.63;0.75;;;;;;;21.74;46.01;101328.38;5086305;28;20568;-44
2022/05/16 03:28:31;;;;;;;1.92;0.90;;;;;;;21.74;45.64;101324.84;5086185;28;20405;-44
2022/05/16 03:30:57;;;;;;;1.40;0.90;;;;;;;21.71;45.52;101316.06;5085764;28;20385;-45
2022/05/16 03:33:24;;;;;;;2.00;1.15;;;;;;;21.72;45.85;101319.63;5086148;28;20029;-47
2022/05/16 03:35:55;;;;;;;1.42;0.93;;;;;;;21.73;45.84;101326.69;5075521;28;20031;-45
2022/05/16 03:41:04;;;;;;;1.30;1.02;;;;;;;21.71;45.56;101323.34;5083500;28;20108;-45
2022/05/16 03:43:29;;;;;;;1.35;0.80;;;;;;;21.72;45.87;101322.31;5084401;28;20028;-45
2022/05/16 03:45:55;;;;;;;1.42;0.90;;;;;;;21.72;45.97;101325.03;5098458;28;20044;-50
2022/05/16 03:48:20;;;;;;;1.38;1.02;;;;;;;21.71;45.33;101332.31;5082393;28;20020;-47
2022/05/16 03:50:45;;;;;;;2.10;1.13;;;;;;;21.72;45.62;101330.44;5074714;28;20029;-47
2022/05/16 03:53:11;;;;;;;2.72;0.70;;;;;;;21.72;45.77;101325.03;5082876;28;20045;-45
2022/05/16 03:55:36;;;;;;;1.90;1.00;;;;;;;21.72;45.67;101314.19;5084774;28;20060;-46
2022/05/16 03:58:01;;;;;;;1.20;0.77;;;;;;;21.73;45.75;101317.75;5074053;28;20083;-47
2022/05/16 04:00:26;;;;;;;2.40;1.50;;;;;;;21.73;45.48;101320.44;5078849;28;20020;-45
2022/05/16 04:02:52;;;;;;;1.77;1.52;;;;;;;21.73;45.35;101320.44;5079438;28;20048;-49
2022/05/16 04:05:19;;;;;;;1.25;0.75;;;;;;;21.71;45.79;101323.34;5079264;28;20035;-48
2022/05/16 04:07:45;;;;;;;2.85;1.33;;;;;;;21.71;45.52;101313.38;5079740;28;20108;-45
2022/05/16 04:10:10;;;;;;;1.00;0.70;;;;;;;21.71;45.62;101313.38;5079866;28;20032;-46
2022/05/16 04:12:35;;;;;;;1.15;0.88;;;;;;;21.72;45.67;101322.31;5081896;28;20428;-46
2022/05/16 04:15:00;;;;;;;1.73;0.80;;;;;;;21.71;45.93;101318.78;5079486;28;20036;-47
2022/05/16 04:17:26;;;;;;;1.17;0.73;;;;;;;21.71;45.67;101320.63;5075941;28;20036;-46
2022/05/16 04:19:52;;;;;;;1.35;1.00;;;;;;;21.71;45.50;101320.63;5084580;28;20025;-45
2022/05/16 04:22:17;;;;;;;1.10;0.70;;;;;;;21.70;45.93;101318.94;5085425;28;20051;-48
2022/05/16 04:24:42;;;;;;;1.77;1.25;;;;;;;21.71;45.98;101320.63;5084447;28;20124;-46
2022/05/16 04:27:07;;;;;;;1.27;0.95;;;;;;;21.67;45.98;101317.44;5080071;28;20036;-48
2022/05/16 04:29:32;;;;;;;0.85;0.68;;;;;;;21.69;45.83;101326.22;5080169;28;20032;-46
2022/05/16 04:31:58;;;;;;;1.23;0.77;;;;;;;21.67;46.00;101312.03;5082549;28;20032;-45
2022/05/16 04:34:23;;;;;;;1.23;0.73;;;;;;;21.70;45.91;101308.09;5084534;28;20092;-44
2022/05/16 04:36:48;;;;;;;1.30;0.90;;;;;;;21.69;46.07;101311.84;5083466;28;20024;-50
2022/05/16 04:39:13;;;;;;;1.60;0.85;;;;;;;21.70;46.22;101318.94;5084472;28;20080;-46
2022/05/16 04:44:22;;;;;;;1.50;0.88;;;;;;;21.67;46.02;101319.31;5076438;28;20035;-48
2022/05/16 04:46:48;;;;;;;1.55;0.88;;;;;;;21.68;45.79;101318.28;5083940;28;20115;-46
2022/05/16 04:49:14;;;;;;;1.15;0.80;;;;;;;21.66;46.17;101325.72;5083626;28;20073;-45
2022/05/16 04:51:39;;;;;;;1.77;0.88;;;;;;;21.67;46.09;101320.16;5077802;28;20077;-45
2022/05/16 04:54:05;;;;;;;1.23;0.80;;;;;;;21.68;46.05;101318.28;5077095;28;20136;-46
2022/05/16 04:56:30;;;;;;;1.92;0.90;;;;;;;21.68;46.25;101329.09;5073201;28;20025;-45
2022/05/16 04:58:55;;;;;;;1.38;0.80;;;;;;;21.68;46.23;101329.94;5083062;28;20457;-49
2022/05/16 05:01:21;;;;;;;1.38;0.90;;;;;;;21.68;46.17;101332.66;5083897;28;20050;-47
2022/05/16 05:03:46;;;;;;;2.05;1.02;;;;;;;21.68;46.21;101321.81;5084331;28;20050;-46
2022/05/16 05:06:11;;;;;;;1.13;0.73;;;;;;;21.68;45.96;101331.81;5079166;28;20083;-46
2022/05/16 05:08:37;;;;;;;1.00;0.80;;;;;;;21.68;46.29;101329.09;5084350;28;20035;-49
2022/05/16 05:16:30;;;;;;;1.50;0.70;;;;;;;21.65;46.44;101334.88;5083336;28;20022;-47
2022/05/16 05:18:56;;;;;;;1.52;0.90;;;;;;;21.65;46.25;101332.16;5081509;28;20095;-50
2022/05/16 05:21:21;;;;;;;0.93;0.73;;;;;;;21.67;46.21;101339.09;5084171;28;20024;-46
2022/05/16 05:23:46;;;;;;;1.80;1.02;;;;;;;21.66;46.52;101333.84;5084034;28;20037;-45
2022/05/16 05:26:12;;;;;;;1.30;0.77;;;;;;;21.66;46.52;101340.13;5083741;28;20025;-45
2022/05/16 05:28:38;;;;;;;1.77;0.93;;;;;;;21.65;46.58;101329.44;5083743;28;20059;-46
2022/05/16 05:31:04;;;;;;;1.00;0.77;;;;;;;21.67;46.19;101333.69;5080306;28;20046;-51
2022/05/16 05:33:30;;;;;;;1.10;0.80;;;;;;;21.49;46.23;101303.31;5070079;28;20029;-46
2022/05/16 05:35:55;;;;;;;1.50;0.90;;;;;;;21.63;46.43;101320.69;5069296;28;20038;-52
2022/05/16 05:38:21;;;;;;;1.20;0.70;;;;;;;21.68;46.71;101321.81;5077055;28;20137;-46
2022/05/16 05:40:46;;;;;;;1.08;0.90;;;;;;;21.68;46.33;101321.81;5070419;28;20032;-49
2022/05/16 05:43:12;;;;;;;1.00;0.90;;;;;;;21.68;46.21;101326.41;5076743;28;20040;-50
2022/05/16 05:45:38;;;;;;;1.65;1.00;;;;;;;21.69;46.67;101319.97;5075877;28;20092;-49
2022/05/16 05:48:04;;;;;;;1.55;1.00;;;;;;;21.67;46.72;101317.44;5075450;28;20036;-44
2022/05/16 05:50:30;;;;;;;1.13;0.88;;;;;;;21.69;46.60;101326.22;5075217;28;20110;-45
2022/05/16 05:52:56;;;;;;;1.38;1.00;;;;;;;21.71;46.87;101334.19;5073546;28;20053;-44
2022/05/16 05:55:21;;;;;;;1.08;0.77;;;;;;;21.70;46.54;101327.06;5073960;28;20092;-51
2022/05/16 05:57:46;;;;;;;1.30;0.88;;;;;;;21.70;46.70;101332.47;5071329;28;20033;-53
2022/05/16 06:00:13;;;;;;;1.02;0.70;;;;;;;21.70;46.94;101327.06;5077362;28;20024;-50
2022/05/16 06:02:40;;;;;;;1.25;0.90;;;;;;;21.71;46.72;101320.63;5076751;28;20500;-49
2022/05/16 06:05:11;;;;;;;1.58;0.90;;;;;;;21.72;46.76;101316.91;5068926;28;20033;-50
2022/05/16 06:07:36;;;;;;;1.73;0.77;;;;;;;21.70;46.76;101317.06;5073082;28;20028;-53
2022/05/16 06:10:02;;;;;;;1.15;0.80;;;;;;;21.70;46.51;101314.34;5071355;28;20119;-50
2022/05/16 06:12:27;;;;;;;0.98;0.77;;;;;;;21.71;46.44;101312.53;5075268;28;20073;-53
2022/05/16 06:14:52;;;;;;;0.80;0.70;;;;;;;21.71;46.57;101312.53;5073443;28;20029;-50
2022/05/16 06:17:20;;;;;;;1.30;0.88;;;;;;;21.71;46.76;101309.81;5073459;28;20024;-53
2022/05/16 06:19:45;;;;;;;1.70;1.08;;;;;;;21.72;46.62;101316.91;5072184;28;20056;-53
2022/05/16 06:22:10;;;;;;;1.48;0.90;;;;;;;21.71;46.80;101310.66;5075918;28;20032;-52
2022/05/16 06:27:20;;;;;;;1.13;0.95;;;;;;;21.71;46.82;101313.38;5073990;28;20028;-47
2022/05/16 06:29:45;;;;;;;2.58;0.95;;;;;;;21.71;46.46;101318.78;5082510;28;20050;-46
2022/05/16 06:32:10;;;;;;;2.03;1.27;;;;;;;21.71;46.65;101324.19;5082224;28;20048;-46
2022/05/16 06:34:35;;;;;;;2.13;1.00;;;;;;;21.71;46.73;101310.66;5080104;28;20032;-45
2022/05/16 06:37:01;;;;;;;1.45;0.85;;;;;;;21.71;46.62;101310.66;5077192;28;20032;-45
2022/05/16 06:39:26;;;;;;;1.48;0.80;;;;;;;21.71;47.01;101304.41;5082552;28;20040;-46
2022/05/16 06:41:51;;;;;;;1.55;0.90;;;;;;;21.71;46.79;101307.09;5078307;28;20021;-48
2022/05/16 06:44:19;;;;;;;1.08;0.80;;;;;;;21.70;46.60;101305.41;5070368;28;20128;-49
2022/05/16 06:46:44;;;;;;;2.05;0.98;;;;;;;21.70;46.55;101311.66;5061231;28;20021;-49
2022/05/16 06:49:09;;;;;;;1.27;1.13;;;;;;;21.69;46.55;101304.56;5073250;28;20508;-50
2022/05/16 06:51:35;;;;;;;1.40;0.80;;;;;;;21.70;46.81;101305.41;5061947;28;20044;-52
2022/05/16 06:54:00;;;;;;;1.92;1.10;;;;;;;21.69;46.87;101304.56;5068335;28;20044;-49
2022/05/16 06:56:26;;;;;;;1.70;1.10;;;;;;;21.71;46.63;101309.81;5074624;28;20452;-49
2022/05/16 06:58:51;;;;;;;1.38;1.00;;;;;;;21.72;46.74;101314.19;5073784;28;20044;-49
2022/05/16 07:01:17;;;;;;;1.63;0.90;;;;;;;21.71;46.69;101316.06;5077614;28;20025;-53
2022/05/16 07:03:43;;;;;;;0.80;0.70;;;;;;;21.71;46.50;101310.66;5075469;28;20519;-52
2022/05/16 07:06:08;;;;;;;2.17;1.08;;;;;;;21.73;46.50;101309.63;5071948;28;20092;-52
2022/05/16 07:08:34;;;;;;;1.08;0.73;;;;;;;21.73;46.66;101317.75;5075158;28;20036;-47
2022/05/16 07:10:59;;;;;;;1.55;0.95;;;;;;;21.73;46.49;101313.19;5069693;28;20029;-47
2022/05/16 07:13:25;;;;;;;1.63;0.85;;;;;;;21.74;46.43;101316.72;5075442;28;20048;-52
2022/05/16 07:15:51;;;;;;;2.40;1.00;;;;;;;21.73;46.48;101324.00;5075742;28;20020;-52
2022/05/16 07:18:17;;;;;;;1.35;0.77;;;;;;;21.74;46.73;101335.66;5074025;28;20171;-50
2022/05/16 07:20:42;;;;;;;1.65;1.00;;;;;;;21.74;46.47;101343.78;5069801;28;20079;-54
2022/05/16 07:23:07;;;;;;;1.52;0.90;;;;;;;21.74;46.70;101355.44;5076031;28;20086;-51
2022/05/16 07:27:56;;;;;;;1.55;1.00;;;;;;;21.71;46.79;101355.81;5080665;28;20021;-52
2022/05/16 07:28:18;;;;;;;1.25;0.80;;;;;;;21.74;46.58;101366.28;5073108;28;20036;-48
2022/05/16 07:30:44;;;;;;;1.38;0.98;;;;;;;21.74;46.61;101360.03;5075073;28;20025;-52
2022/05/16 07:33:09;;;;;;;0.90;0.80;;;;;;;21.70;46.76;101351.41;5072387;28;20036;-53
2022/05/16 07:35:35;;;;;;;1.98;1.20;;;;;;;21.74;45.84;101358.16;5076894;28;20085;-51
2022/05/16 07:38:01;;;;;;;0.95;0.85;;;;;;;21.76;46.65;101355.28;5072678;28;20029;-52
2022/05/16 07:40:31;;;;;;;2.17;0.90;;;;;;;21.77;46.36;101362.38;5078988;28;20656;-53
2022/05/16 07:42:57;;;;;;;1.20;0.75;;;;;;;21.77;46.29;101362.38;5083274;28;20036;-53
2022/05/16 07:45:23;;;;;;;0.90;0.80;;;;;;;21.77;46.54;101376.75;5078363;28;20032;-47
2022/05/16 07:47:48;;;;;;;2.28;1.17;;;;;;;21.77;46.38;101371.34;5075409;28;20092;-47
2022/05/16 07:50:14;;;;;;;1.35;0.80;;;;;;;21.77;46.16;101378.63;5075322;28;20564;-51
2022/05/16 07:52:45;;;;;;;1.05;0.88;;;;;;;21.79;46.39;101368.44;5078978;28;20072;-54
2022/05/16 07:55:10;;;;;;;0.80;0.60;;;;;;;21.78;46.24;101373.03;5083614;28;20036;-50
2022/05/16 07:57:36;;;;;;;1.20;0.60;;;;;;;21.79;46.22;101363.91;5073752;28;20044;-46
2022/05/16 08:00:01;;;;;;;1.45;0.88;;;;;;;21.78;46.15;101367.63;5074165;28;20029;-46
2022/05/16 08:02:26;;;;;;;1.30;0.88;;;;;;;21.79;46.14;101373.88;5079117;28;20043;-49
2022/05/16 08:04:52;;;;;;;1.02;0.90;;;;;;;21.78;46.31;101370.31;5080897;28;20036;-49
2022/05/16 08:07:17;;;;;;;2.95;0.82;;;;;;;21.79;46.40;101374.72;5078772;28;20738;-47
2022/05/16 08:12:32;;;;;;;2.17;1.15;;;;;;;21.81;46.31;101377.25;5075707;28;20035;-48
2022/05/16 08:15:00;;;;;;;0.90;0.80;;;;;;;21.80;46.56;101376.41;5081043;28;20045;-50
2022/05/16 08:17:25;;;;;;;0.98;0.70;;;;;;;21.82;46.60;101389.75;5065874;28;20190;-49
2022/05/16 08:19:50;;;;;;;1.40;0.90;;;;;;;21.80;46.33;101381.81;5073031;28;20032;-46
2022/05/16 08:22:17;;;;;;;1.25;0.70;;;;;;;21.85;46.30;101394.84;5076092;28;20037;-51
2022/05/16 08:24:43;;;;;;;1.05;0.70;;;;;;;21.86;45.96;101399.22;5081098;28;20036;-50
2022/05/16 08:27:08;;;;;;;0.95;0.75;;;;;;;21.88;45.96;101399.91;5076324;28;20043;-52
2022/05/16 08:29:33;;;;;;;1.30;0.90;;;;;;;21.88;45.90;101408.88;5082782;28;20032;-51
2022/05/16 08:31:59;;;;;;;1.08;0.80;;;;;;;21.89;45.64;101412.41;5077796;28;20040;-46
2022/05/16 08:34:25;;;;;;;0.95;0.80;;;;;;;21.90;46.09;101403.25;5078122;28;20060;-49
2022/05/16 08:39:52;;;;;;;1.13;0.82;;;;;;;21.89;45.89;101404.28;5070070;28;20132;-51
2022/05/16 08:42:22;;;;;;;1.90;0.90;;;;;;;21.87;45.73;101387.38;5078872;28;20024;-48
2022/05/16 08:44:56;;;;;;;0.90;0.80;;;;;;;21.88;45.95;101398.03;5075649;28;20028;-46
2022/05/16 08:47:40;;;;;;;1.00;0.70;;;;;;;21.90;46.11;101397.84;5076268;28;20028;-51
2022/05/16 08:50:15;;;;;;;1.00;0.70;;;;;;;21.90;46.20;101401.38;5078025;28;20060;-47
2022/05/16 08:53:03;;;;;;;1.60;1.08;;;;;;;21.89;46.02;101391.59;5079843;28;20074;-47
2022/05/16 08:55:33;;;;;;;1.77;1.05;;;;;;;21.88;46.42;101387.19;5073765;28;20024;-52
2022/05/16 08:58:19;;;;;;;0.77;0.70;;;;;;;21.89;46.52;101390.75;5071276;28;20129;-51
2022/05/16 09:00:51;;;;;;;0.80;0.60;;;;;;;21.89;46.64;101390.75;5070175;28;20033;-48
2022/05/16 09:04:02;;;;;;;1.63;0.70;;;;;;;21.90;46.37;101397.84;5079848;28;20029;-53
2022/05/16 09:06:56;;;;;;;1.98;1.00;;;;;;;21.86;46.53;101386.53;5065605;28;20051;-51
2022/05/16 09:09:25;;;;;;;0.95;0.70;;;;;;;21.89;46.60;101390.75;5074177;28;20035;-46
2022/05/16 09:12:07;;;;;;;1.27;1.15;;;;;;;21.89;46.49;101391.59;5073560;28;20435;-48
2022/05/16 09:14:52;;;;;;;1.27;0.88;;;;;;;21.90;46.61;101398.69;5066829;28;20020;-50
2022/05/16 09:17:55;;;;;;;1.42;0.80;;;;;;;21.90;46.57;101387.84;5074890;28;20068;-48
2022/05/16 09:20:32;;;;;;;0.80;0.65;;;;;;;21.91;46.92;101391.41;5076707;28;20025;-48
2022/05/16 09:23:05;;;;;;;0.90;0.80;;;;;;;21.90;46.68;101393.28;5072737;28;20072;-48
2022/05/16 09:25:39;;;;;;;0.90;0.68;;;;;;;21.93;46.80;101389.38;5077458;28;20088;-48
2022/05/16 09:30:55;;;;;;;1.00;0.82;;;;;;;21.95;46.19;101393.56;5075343;28;20070;-46
2022/05/16 09:33:21;;;;;;;1.30;0.70;;;;;;;;;;5074690;28;20107;-49
2022/05/16 09:35:56;;;;;;;0.95;0.85;;;;;;;22.00;46.26;101397.63;5077711;28;20028;-49
2022/05/16 09:38:22;;;;;;;1.17;0.80;;;;;;;22.00;46.22;101401.16;5074490;28;20027;-48
2022/05/16 09:41:24;;;;;;;1.58;0.80;;;;;;;22.03;46.08;101399.97;5072830;28;20033;-48
2022/05/16 09:44:04;;;;;;;1.00;0.60;;;;;;;22.03;46.14;101398.13;5074040;28;20086;-50
2022/05/16 09:46:34;;;;;;;1.02;0.80;;;;;;;22.02;46.30;101401.00;5080235;28;20028;-47
2022/05/16 09:49:04;;;;;;;0.80;0.80;;;;;;;22.02;46.07;101393.72;5075912;28;20032;-46
2022/05/16 09:51:30;;;;;;;1.10;0.90;;;;;;;22.06;46.25;101399.63;5064278;28;20092;-44
2022/05/16 09:54:18;;;;;;;1.42;1.00;;;;;;;22.05;46.08;101395.25;5075793;28;20051;-49
2022/05/16 09:57:16;;;;;;;1.45;0.80;;;;;;;22.08;46.23;101395.72;5069025;28;20104;-50
2022/05/16 09:59:43;;;;;;;;;;;;;;;22.05;46.61;101401.50;5047657;28;20033;-48
2022/05/16 10:02:13;;;;;;;1.48;0.70;;;;;;;22.08;46.86;101394.88;5075149;28;19919;-49
2022/05/16 10:04:41;;;;;;;1.73;0.90;;;;;;;22.09;46.34;101397.41;5075427;28;20443;-53
2022/05/16 10:07:08;;;;;;;1.02;0.77;;;;;;;22.08;46.89;101395.72;5073879;28;20038;-47
2022/05/16 10:09:59;;;;;;;1.55;1.00;;;;;;;22.11;46.53;101405.34;5076916;28;20241;-49
2022/05/16 10:12:26;;;;;;;1.13;0.80;;;;;;;22.11;46.67;101405.34;5076699;28;20051;-49
2022/05/16 10:14:52;;;;;;;1.15;0.80;;;;;;;22.11;46.84;101402.66;5076198;28;20036;-51
2022/05/16 10:17:25;;;;;;;1.20;0.70;;;;;;;22.12;46.59;101412.44;5075444;28;20025;-48
2022/05/16 10:19:58;;;;;;;1.63;0.80;;;;;;;22.12;46.71;101413.31;5076498;28;20066;-46
2022/05/16 10:22:25;;;;;;;1.08;0.90;;;;;;;22.12;46.44;101415.16;5072685;28;20095;-42
2022/05/16 10:24:55;;;;;;;1.20;0.80;;;;;;;22.13;46.75;101414.16;5060728;28;20037;-42
2022/05/16 10:27:25;;;;;;;1.02;0.93;;;;;;;22.13;46.45;101409.63;5070464;28;20036;-43
2022/05/16 10:29:52;;;;;;;1.45;0.77;;;;;;;22.13;46.30;101412.31;5063715;28;20025;-43
2022/05/16 10:35:18;;;;;;;1.27;0.98;;;;;;;22.11;46.48;101408.06;5073026;28;20089;-48
2022/05/16 10:37:46;;;;;;;1.15;0.90;;;;;;;22.16;46.32;101413.81;5066459;28;20106;-45
2022/05/16 10:40:22;;;;;;;1.55;0.77;;;;;;;22.16;46.66;101422.78;5055294;28;20031;-44
2022/05/16 10:42:52;;;;;;;0.98;0.70;;;;;;;22.16;46.67;101419.22;5068827;28;20072;-49
2022/05/16 10:45:20;;;;;;;1.48;0.70;;;;;;;22.15;46.32;101414.84;5074000;28;20044;-46
2022/05/16 10:47:51;;;;;;;0.70;0.60;;;;;;;22.17;46.59;101421.78;5073459;28;20024;-44
2022/05/16 10:50:21;;;;;;;1.13;0.70;;;;;;;22.18;46.52;101426.16;5071364;28;20130;-44
2022/05/16 10:52:52;;;;;;;1.70;0.90;;;;;;;22.21;46.23;101427.66;5057041;28;20640;-46
2022/05/16 10:55:18;;;;;;;1.00;0.80;;;;;;;22.20;46.53;101428.69;5075552;28;20067;-44
2022/05/16 10:58:12;;;;;;;0.98;0.68;;;;;;;22.21;46.52;101428.50;5070518;28;20041;-44
2022/05/16 11:00:47;;;;;;;1.73;1.10;;;;;;;22.22;46.72;101429.38;5073497;28;20413;-44
2022/05/16 11:03:38;;;;;;;1.10;0.75;;;;;;;22.24;46.46;101437.31;5073506;28;20028;-43
2022/05/16 11:06:24;;;;;;;1.30;0.82;;;;;;;22.23;46.65;101427.50;5078964;28;20084;-43
2022/05/16 11:09:05;;;;;;;1.08;0.70;;;;;;;22.24;47.05;101438.16;5069636;28;20032;-45
2022/05/16 11:11:36;;;;;;;1.30;0.90;;;;;;;22.25;46.95;101437.13;5084527;28;20017;-43
2022/05/16 11:14:08;;;;;;;1.50;1.02;;;;;;;22.26;47.25;101429.84;5084890;28;20032;-46
2022/05/16 11:16:36;;;;;;;1.00;0.90;;;;;;;22.25;47.12;101420.88;5085999;28;20154;-49
2022/05/16 11:19:15;;;;;;;1.52;1.00;;;;;;;22.25;47.19;101418.16;5085954;28;20033;-47
2022/05/16 11:22:00;;;;;;;1.83;1.15;;;;;;;22.27;46.86;101426.97;5085396;28;20084;-47
2022/05/16 11:24:35;;;;;;;1.33;0.85;;;;;;;22.27;47.33;101421.56;5070324;28;20413;-46
2022/05/16 11:27:30;;;;;;;0.90;0.80;;;;;;;22.29;47.22;101424.06;5077405;28;20036;-45
2022/05/16 11:30:10;;;;;;;1.55;1.00;;;;;;;22.27;47.20;101426.97;5084651;28;20044;-44
2022/05/16 11:32:56;;;;;;;1.30;0.93;;;;;;;22.27;47.46;101426.97;5079206;28;20350;-42
2022/05/16 11:35:45;;;;;;;0.82;0.80;;;;;;;22.27;47.11;101423.41;5078266;28;20034;-45
2022/05/16 11:38:48;;;;;;;1.83;1.00;;;;;;;22.29;47.28;101418.66;5085832;28;20028;-42
2022/05/16 11:41:38;;;;;;;1.60;1.10;;;;;;;22.32;47.27;101416.44;5077211;28;20059;-46
2022/05/16 11:44:17;;;;;;;1.20;0.93;;;;;;;22.34;46.79;101418.94;5084438;28;20032;-48
2022/05/16 11:47:16;;;;;;;1.00;0.90;;;;;;;22.38;46.83;101418.41;5074954;28;20036;-44
2022/05/16 11:49:43;;;;;;;2.25;1.38;;;;;;;22.39;46.87;101416.56;5081790;28;20040;-47
2022/05/16 11:52:36;;;;;;;1.75;0.93;;;;;;;22.43;46.74;101420.63;5080995;28;20075;-42
2022/05/16 11:55:03;;;;;;;1.42;0.90;;;;;;;22.41;46.85;101406.38;5077914;28;20047;-48
2022/05/16 12:02:50;;;;;;;1.83;1.00;;;;;;;22.52;46.75;101418.69;5088163;28;20405;-46
2022/05/16 12:05:18;;;;;;;1.33;1.00;;;;;;;22.53;46.68;101415.78;5087487;28;20616;-46
2022/05/16 12:07:57;;;;;;;1.08;0.77;;;;;;;22.54;46.41;101420.19;5085800;28;20032;-47
2022/05/16 12:10:28;;;;;;;0.90;0.80;;;;;;;22.56;46.67;101426.28;5084380;28;20029;-44
2022/05/16 12:13:22;;;;;;;1.48;0.93;;;;;;;22.57;46.53;101427.13;5071085;28;20036;-46